Flight Track Log - Related Links

Times and Time Zones

All times are in EDT time to prevent confusion due to time zone crossing. See the EJA951 flight status page for this flight to view local times or setup timezone preferences in your user account.

Time Position Orientation Groundspeed Altitude Reporting Facility
EDT Latitude Longitude Course Direction KTS MPH feet Rate Location/Type
Fri 01:50:57 PM 40.8167 -74.1333 252° West 206 237 1,500  Level New York TRACON
Fri 01:51:52 PM 40.8000 -74.2000 252° West 241 277 4,300 4,000 Climbing New York TRACON
Fri 01:52:51 PM 40.7833 -74.2833 255° West 255 293 9,100 3,117 Climbing New York TRACON
Fri 01:54:26 PM 40.7833 -74.4572 270° West 326 375 12,300 2,168 Climbing New York Center
Fri 01:55:26 PM 40.7861 -74.5614 272° West 333 383 14,700 2,350 Climbing New York Center
Fri 01:56:26 PM 40.7922 -74.6961 273° West 333 383 17,000 2,150 Climbing New York Center
Fri 01:57:26 PM 40.7967 -74.8086 273° West 338 389 19,000 1,950 Climbing New York Center
Fri 01:58:26 PM 40.7817 -74.9394 261° West 349 402 20,900 2,350 Climbing New York Center
Fri 01:59:26 PM 40.7417 -75.0683 248° West 359 413 23,700 2,800 Climbing New York Center
Fri 02:00:26 PM 40.7017 -75.1919 247° West 366 421 26,500 2,300 Climbing New York Center
Fri 02:01:26 PM 40.6617 -75.3178 247° West 371 427 28,300 2,200 Climbing New York Center
Fri 02:02:26 PM 40.6142 -75.4622 247° West 376 433 30,900 1,950 Climbing New York Center
Fri 02:03:26 PM 40.5711 -75.5986 247° West 397 457 32,200 1,550 Climbing New York Center
Fri 02:04:26 PM 40.5258 -75.7403 247° West 412 474 34,000 1,450 Climbing New York Center
Fri 02:05:26 PM 40.4800 -75.8844 247° West 424 488 35,100 1,050 Climbing New York Center
Fri 02:06:26 PM 40.4322 -76.0200 245° Southwest 434 499 36,100 1,000 Climbing New York Center
Fri 02:07:26 PM 40.3861 -76.1664 248° West 439 505 37,100 1,000 Climbing New York Center
Fri 02:08:26 PM 40.3481 -76.3158 252° West 445 512 38,100 1,000 Climbing New York Center
Fri 02:09:26 PM 40.3356 -76.4864 265° West 424 488 39,100 950 Climbing New York Center
Fri 02:10:26 PM 40.3278 -76.6464 266° West 430 495 40,000 450 Climbing New York Center
Fri 02:11:26 PM 40.3161 -76.7981 264° West 435 501 40,000  Level New York Center
Fri 02:12:26 PM 40.3094 -76.9661 267° West 441 507 40,000  Level New York Center
Fri 02:13:26 PM 40.2989 -77.1258 265° West 446 513 40,000  Level New York Center
Fri 02:14:26 PM 40.2900 -77.2883 266° West 446 513 40,000  Level New York Center
Fri 02:15:26 PM 40.2808 -77.4536 266° West 451 519 40,000  Level New York Center
Fri 02:17:06 PM 40.2642 -77.7072 265° West 456 525 40,000  Level Cleveland Center
Fri 02:18:08 PM 40.2772 -77.8703 276° West 456 525 40,000  Level Cleveland Center
Fri 02:19:10 PM 40.3142 -78.0444 286° West 457 526 40,000  Level Cleveland Center
Fri 02:20:12 PM 40.3483 -78.2058 286° West 457 526 40,000  Level Cleveland Center
Fri 02:21:14 PM 40.3750 -78.3686 282° West 458 527 40,000  Level Cleveland Center
Fri 02:22:16 PM 40.3772 -78.5694 271° West 458 527 40,000  Level Cleveland Center
Fri 02:23:18 PM 40.3783 -78.7333 271° West 456 525 40,000  Level Cleveland Center
Fri 02:24:20 PM 40.3803 -78.8964 271° West 453 521 40,000  Level Cleveland Center
Fri 02:25:22 PM 40.3811 -79.0578 270° West 446 513 40,000  Level Cleveland Center
Fri 02:26:24 PM 40.3811 -79.2178 270° West 445 512 40,000  Level Cleveland Center
Fri 02:27:27 PM 40.3822 -79.3886 271° West 446 513 40,000  Level Cleveland Center
Fri 02:28:29 PM 40.3819 -79.5525 270° West 447 514 40,000  Level Cleveland Center
Fri 02:29:31 PM 40.3814 -79.7492 270° West 450 518 40,000  Level Cleveland Center
Fri 02:30:33 PM 40.3806 -79.9153 270° West 453 521 40,000  Level Cleveland Center
Fri 02:32:37 PM 40.3817 -80.2408 270° West 460 529 40,000  Level Cleveland Center
Fri 02:33:39 PM 40.3792 -80.4367 269° West 465 535 40,000  Level Cleveland Center
Fri 02:34:41 PM 40.3783 -80.6069 270° West 468 539 40,000  Level Cleveland Center
Fri 02:35:44 PM 40.3764 -80.7753 269° West 466 536 40,000  Level Cleveland Center
Fri 02:36:46 PM 40.3750 -80.9417 269° West 463 533 40,000  Level Cleveland Center
Fri 02:37:48 PM 40.3722 -81.1053 269° West 454 522 40,000  Level Cleveland Center
Fri 02:38:50 PM 40.3692 -81.3011 269° West 451 519 40,000  Level Cleveland Center
Fri 02:39:52 PM 40.3672 -81.4675 269° West 446 513 40,000  Level Cleveland Center
Fri 02:40:54 PM 40.3642 -81.6303 269° West 444 511 40,000  Level Cleveland Center
Fri 02:41:56 PM 40.3611 -81.7911 269° West 442 509 40,000 -339 Level Cleveland Center
Fri 02:42:58 PM 40.3581 -81.9525 269° West 441 507 39,300 -871 Descending Cleveland Center
Fri 02:44:00 PM 40.3550 -82.1147 269° West 441 507 38,200 -1,008 Descending Cleveland Center
Fri 02:45:03 PM 40.3503 -82.2794 268° West 444 511 37,200 -1,200 Descending Cleveland Center
Fri 02:46:05 PM 40.3475 -82.4494 269° West 388 447 35,700 -1,403 Descending Cleveland Center
Fri 02:47:07 PM 40.3433 -82.5800 268° West 362 417 34,300 -968 Descending Cleveland Center
Fri 02:48:09 PM 40.3392 -82.7189 268° West 379 436 33,700 -1,210 Descending Cleveland Center
Fri 02:49:11 PM 40.3350 -82.8575 268° West 381 438 31,800 -1,790 Descending Cleveland Center
Fri 02:50:13 PM 40.3325 -83.0039 269° West 401 461 30,000 -871 Descending Cleveland Center
Fri 02:51:15 PM 40.3272 -83.1528 267° West 410 472 30,000  Level Cleveland Center
Fri 02:52:17 PM 40.3219 -83.3319 268° West 411 473 30,000  Level Cleveland Center
Fri 02:53:20 PM 40.3169 -83.4817 268° West 416 479 30,000  Level Cleveland Center
Fri 02:54:22 PM 40.3125 -83.6308 268° West 416 479 30,000  Level Cleveland Center
Fri 02:55:24 PM 40.3069 -83.7808 267° West 416 479 30,000  Level Cleveland Center
Fri 02:56:26 PM 40.3000 -83.9606 267° West 416 479 30,000  Level Cleveland Center
Fri 02:57:51 PM 40.2922 -84.1719 267° West 415 478 30,000  Level Indianapolis Center
Fri 02:58:53 PM 40.2850 -84.3222 266° West 415 478 30,000 -192 Level Indianapolis Center
Fri 02:59:56 PM 40.2789 -84.4725 267° West 415 478 29,600 -768 Descending Indianapolis Center
Fri 03:00:58 PM 40.2728 -84.6189 267° West 410 472 28,400 -1,306 Descending Indianapolis Center
Fri 03:02:00 PM 40.2664 -84.7681 267° West 409 471 26,900 -1,500 Descending Indianapolis Center
Fri 03:03:02 PM 40.2597 -84.9294 267° West 414 476 25,300 -1,452 Descending Indianapolis Center
Fri 03:04:04 PM 40.2517 -85.0758 266° West 409 471 23,900 -2,032 Descending Indianapolis Center
Fri 03:05:06 PM 40.2439 -85.2464 267° West 398 458 21,100 -2,661 Descending Indianapolis Center
Fri 03:06:08 PM 40.2361 -85.3808 266° West 378 435 18,400 -2,516 Descending Indianapolis Center
Fri 03:07:10 PM 40.1928 -85.4953 244° Southwest 355 409 15,900 -2,274 Descending Indianapolis Center
Fri 03:08:12 PM 40.1497 -85.5953 241° Southwest 325 374 13,700 -2,081 Descending Indianapolis Center
Fri 03:09:14 PM 40.1114 -85.6850 241° Southwest 293 337 11,600 -1,694 Descending Indianapolis Center
Fri 03:10:16 PM 40.0736 -85.7719 240° Southwest 281 323 10,200 -1,296 Descending Indianapolis Center
Fri 03:11:19 PM 40.0300 -85.8683 239° Southwest 262 302 8,900 -1,392 Descending Indianapolis Center
Fri 03:12:21 PM 39.9856 -85.9406 231° Southwest 259 298 7,300 -1,548 Descending Indianapolis Center
Fri 03:13:23 PM 39.9364 -86.0008 223° Southwest 250 288 5,700 -1,548 Descending Indianapolis Center
Fri 03:14:25 PM 39.8906 -86.0606 225° Southwest 241 277 4,100 -823 Descending Indianapolis Center
Fri 03:15:27 PM 39.8431 -86.1222 225° Southwest 238 274 4,000 -532 Descending Indianapolis Center
Fri 03:16:29 PM 39.7964 -86.1825 225° Southwest 213 245 3,000 -919 Descending Indianapolis Center
Fri 03:17:31 PM 39.7658 -86.2208 224° Southwest 176 203 2,100 -823 Descending Indianapolis Center
Fri 03:18:33 PM 39.7361 -86.2592 225° Southwest 159 183 1,300 -629 Descending Indianapolis Center
Fri 03:19:35 PM 39.7119 -86.2894 224° Southwest 149 171 800 -484 Descending Indianapolis Center
Fri 03:21:00 PM 39.7167 -86.2833 229° Southwest  Level FlightAware Approximate

Login

Don't have an account? Register now (free) for customized features, flight alerts, and more!